Time,TemperatureF,DewpointF,PressureIn,WindDirection,WindDirectionDegrees,WindSpeedMPH,WindSpeedGustMPH,Humidity,HourlyPrecipIn,Conditions,Clouds,dailyrainin,SoftwareType,DateUTC
2013-03-14 00:00:00,35.8,25.0,29.77,WNW,293,0.0,-999.0,65,-99.99,,,0.05,weatherlink.com 1.10,2013-03-14 04:00:00,
2013-03-14 00:15:00,35.6,26.0,29.77,WNW,293,1.0,-999.0,67,-99.99,,,0.05,weatherlink.com 1.10,2013-03-14 04:15:00,
2013-03-14 00:30:00,35.2,25.0,29.77,WNW,293,1.0,-999.0,67,-99.99,,,0.00,weatherlink.com 1.10,2013-03-14 04:30:00,
2013-03-14 00:45:00,35.2,25.0,29.77,WNW,293,0.0,-999.0,66,-99.99,,,0.00,weatherlink.com 1.10,2013-03-14 04:45:00,
2013-03-14 01:00:00,35.6,25.0,29.77,WNW,293,0.0,-999.0,66,-99.99,,,0.00,weatherlink.com 1.10,2013-03-14 05:00:00,
2013-03-14 01:15:00,35.4,25.0,29.77,WNW,293,0.0,-999.0,66,-99.99,,,0.00,weatherlink.com 1.10,2013-03-14 05:15:00,
2013-03-14 01:30:00,35.1,25.0,29.77,WNW,293,0.0,-999.0,67,-99.99,,,0.00,weatherlink.com 1.10,2013-03-14 05:30:00,
2013-03-14 01:45:00,34.1,25.0,29.77,WNW,293,0.0,-999.0,68,-99.99,,,0.00,weatherlink.com 1.10,2013-03-14 05:45:00,
2013-03-14 02:00:00,35.0,25.0,29.77,WNW,293,0.0,-999.0,67,-99.99,,,0.00,weatherlink.com 1.10,2013-03-14 06:00:00,
2013-03-14 02:15:00,34.4,25.0,29.77,WNW,293,0.0,-999.0,68,-99.99,,,0.00,weatherlink.com 1.10,2013-03-14 06:15:00,
2013-03-14 02:30:00,33.4,25.0,29.77,WNW,293,0.0,-999.0,70,-99.99,,,0.00,weatherlink.com 1.10,2013-03-14 06:30:00,
2013-03-14 02:45:00,33.9,25.0,29.77,West,281,0.0,-999.0,70,-99.99,,,0.00,weatherlink.com 1.10,2013-03-14 06:45:00,
2013-03-14 03:00:00,34.4,26.0,29.77,WSW,252,0.0,-999.0,70,-99.99,,,0.00,weatherlink.com 1.10,2013-03-14 07:00:00,
2013-03-14 03:15:00,34.2,25.0,29.77,WSW,253,0.0,-999.0,70,-99.99,,,0.00,weatherlink.com 1.10,2013-03-14 07:15:00,
2013-03-14 03:30:00,34.4,26.0,29.77,WSW,251,1.0,-999.0,70,-99.99,,,0.00,weatherlink.com 1.10,2013-03-14 07:30:00,
2013-03-14 03:45:00,34.4,26.0,29.77,WSW,249,0.0,-999.0,70,-99.99,,,0.00,weatherlink.com 1.10,2013-03-14 07:45:00,
2013-03-14 04:00:00,34.9,26.0,29.76,SW,235,2.0,-999.0,70,-99.99,,,0.00,weatherlink.com 1.10,2013-03-14 08:00:00,
2013-03-14 04:15:00,34.9,26.0,29.76,WSW,237,0.0,-999.0,70,-99.99,,,0.00,weatherlink.com 1.10,2013-03-14 08:15:00,
2013-03-14 04:30:00,34.9,26.0,29.76,SW,233,0.0,-999.0,70,-99.99,,,0.00,weatherlink.com 1.10,2013-03-14 08:30:00,
2013-03-14 04:45:00,34.4,26.0,29.76,SW,234,0.0,-999.0,70,-99.99,,,0.00,weatherlink.com 1.10,2013-03-14 08:45:00,
2013-03-14 05:00:00,33.8,25.0,29.76,SW,234,0.0,-999.0,70,-99.99,,,0.00,weatherlink.com 1.10,2013-03-14 09:00:00,
2013-03-14 05:15:00,33.2,25.0,29.76,SW,234,0.0,-999.0,71,-99.99,,,0.00,weatherlink.com 1.10,2013-03-14 09:15:00,
2013-03-14 05:30:00,32.8,24.0,29.76,SW,234,0.0,-999.0,71,-99.99,,,0.00,weatherlink.com 1.10,2013-03-14 09:30:00,
2013-03-14 05:45:00,32.4,24.0,29.76,SW,234,0.0,-999.0,71,-99.99,,,0.00,weatherlink.com 1.10,2013-03-14 09:45:00,
2013-03-14 06:00:00,32.1,24.0,29.77,SW,234,0.0,-999.0,71,-99.99,,,0.00,weatherlink.com 1.10,2013-03-14 10:00:00,
2013-03-14 06:15:00,31.8,23.0,29.77,SW,234,1.0,-999.0,70,-99.99,,,0.00,weatherlink.com 1.10,2013-03-14 10:15:00,
2013-03-14 06:30:00,31.4,22.0,29.77,SW,235,0.0,-999.0,69,-99.99,,,0.00,weatherlink.com 1.10,2013-03-14 10:30:00,
2013-03-14 06:45:00,31.5,22.0,29.78,SW,235,0.0,-999.0,67,-99.99,,,0.00,weatherlink.com 1.10,2013-03-14 10:45:00,
2013-03-14 07:00:00,32.5,23.0,29.77,SW,236,1.0,-999.0,67,-99.99,,,0.00,weatherlink.com 1.10,2013-03-14 11:00:00,
2013-03-14 07:15:00,33.0,24.0,29.78,WNW,282,1.0,-999.0,69,-99.99,,,0.00,weatherlink.com 1.10,2013-03-14 11:15:00,
2013-03-14 07:30:00,33.3,24.0,29.78,SW,216,0.0,-999.0,69,-99.99,,,0.00,weatherlink.com 1.10,2013-03-14 11:30:00,
2013-03-14 07:45:00,33.5,24.0,29.78,West,270,1.0,-999.0,69,-99.99,,,0.00,weatherlink.com 1.10,2013-03-14 11:45:00,
2013-03-14 08:00:00,33.7,25.0,29.78,WSW,255,3.0,-999.0,69,-99.99,,,0.00,weatherlink.com 1.10,2013-03-14 12:00:00,
2013-03-14 08:15:00,33.9,25.0,29.79,WSW,254,0.0,-999.0,69,-99.99,,,0.00,weatherlink.com 1.10,2013-03-14 12:15:00,
2013-03-14 08:30:00,34.2,25.0,29.79,WSW,256,0.0,-999.0,68,-99.99,,,0.00,weatherlink.com 1.10,2013-03-14 12:30:00,
2013-03-14 08:45:00,34.4,25.0,29.79,WSW,257,0.0,-999.0,68,-99.99,,,0.00,weatherlink.com 1.10,2013-03-14 12:45:00,
2013-03-14 09:00:00,34.4,24.0,29.79,West,263,3.0,-999.0,67,-99.99,,,0.00,weatherlink.com 1.10,2013-03-14 13:00:00,
2013-03-14 09:15:00,33.9,24.0,29.80,SW,217,2.0,-999.0,68,-99.99,,,0.00,weatherlink.com 1.10,2013-03-14 13:15:00,
2013-03-14 09:30:00,34.1,24.0,29.79,West,269,0.0,-999.0,67,-99.99,,,0.00,weatherlink.com 1.10,2013-03-14 13:30:00,
2013-03-14 09:45:00,34.4,22.0,29.79,WSW,239,4.0,-999.0,62,-99.99,,,0.00,weatherlink.com 1.10,2013-03-14 13:45:00,
2013-03-14 10:00:00,35.0,23.0,29.79,NW,322,1.0,-999.0,61,-99.99,,,0.00,weatherlink.com 1.10,2013-03-14 14:00:00,
2013-03-14 10:15:00,35.1,23.0,29.78,SSW,210,4.0,-999.0,61,-99.99,,,0.00,weatherlink.com 1.10,2013-03-14 14:15:00,
2013-03-14 10:30:00,35.4,25.0,29.78,SSW,210,1.0,-999.0,66,-99.99,,,0.00,weatherlink.com 1.10,2013-03-14 14:30:00,
2013-03-14 10:45:00,36.1,23.0,29.77,WSW,240,2.0,-999.0,60,-99.99,,,0.00,weatherlink.com 1.10,2013-03-14 14:45:00,
2013-03-14 11:00:00,36.1,23.0,29.77,SSW,205,4.0,-999.0,60,-99.99,,,0.00,weatherlink.com 1.10,2013-03-14 15:00:00,
2013-03-14 11:15:00,36.0,23.0,29.77,WSW,257,4.0,-999.0,59,-99.99,,,0.00,weatherlink.com 1.10,2013-03-14 15:15:00,
2013-03-14 11:30:00,37.0,23.0,29.76,WSW,253,4.0,-999.0,58,-99.99,,,0.00,weatherlink.com 1.10,2013-03-14 15:30:00,
2013-03-14 11:45:00,37.9,24.0,29.76,West,265,3.0,-999.0,57,-99.99,,,0.00,weatherlink.com 1.10,2013-03-14 15:45:00,
2013-03-14 11:59:00,37.8,24.0,29.75,WNW,300,0.0,-999.0,57,-99.99,,,0.00,weatherlink.com 1.10,2013-03-14 15:59:00,
2013-03-14 12:14:00,36.4,23.0,29.74,WSW,237,4.0,-999.0,59,-99.99,,,0.00,weatherlink.com 1.10,2013-03-14 16:14:00,
2013-03-14 12:29:00,35.4,23.0,29.75,West,266,0.0,-999.0,61,-99.99,,,0.00,weatherlink.com 1.10,2013-03-14 16:29:00,
2013-03-14 12:44:00,36.2,23.0,29.74,SW,224,3.0,-999.0,58,-99.99,,,0.00,weatherlink.com 1.10,2013-03-14 16:44:00,
2013-03-14 13:00:00,36.7,21.0,29.74,WNW,297,2.0,-999.0,54,-99.99,,,0.00,weatherlink.com 1.10,2013-03-14 17:00:00,
2013-03-14 13:15:00,36.4,22.0,29.73,WNW,295,2.0,-999.0,57,-99.99,,,0.00,weatherlink.com 1.10,2013-03-14 17:15:00,
2013-03-14 13:30:00,36.6,22.0,29.72,SW,228,6.0,-999.0,56,-99.99,,,0.00,weatherlink.com 1.10,2013-03-14 17:30:00,
2013-03-14 13:45:00,35.0,21.0,29.72,SW,226,1.0,-999.0,57,-99.99,,,0.00,weatherlink.com 1.10,2013-03-14 17:45:00,
2013-03-14 14:00:00,36.8,24.0,29.72,SW,223,3.0,-999.0,59,-99.99,,,0.00,weatherlink.com 1.10,2013-03-14 18:00:00,
2013-03-14 14:15:00,38.5,23.0,29.70,SW,214,10.0,-999.0,55,-99.99,,,0.00,weatherlink.com 1.10,2013-03-14 18:15:00,
2013-03-14 14:30:00,37.3,20.0,29.71,SSW,196,10.0,-999.0,50,-99.99,,,0.00,weatherlink.com 1.10,2013-03-14 18:30:00,
2013-03-14 14:45:00,35.4,18.0,29.71,SW,233,3.0,-999.0,49,-99.99,,,0.00,weatherlink.com 1.10,2013-03-14 18:45:00,
2013-03-14 15:00:00,34.9,19.0,29.72,WSW,240,6.0,-999.0,52,-99.99,,,0.00,weatherlink.com 1.10,2013-03-14 19:00:00,
2013-03-14 15:15:00,34.7,18.0,29.72,WSW,258,1.0,-999.0,51,-99.99,,,0.00,weatherlink.com 1.10,2013-03-14 19:15:00,
2013-03-14 15:30:00,35.0,18.0,29.72,WSW,241,5.0,-999.0,51,-99.99,,,0.00,weatherlink.com 1.10,2013-03-14 19:30:00,
2013-03-14 15:45:00,34.4,19.0,29.72,SSW,205,15.0,-999.0,53,-99.99,,,0.00,weatherlink.com 1.10,2013-03-14 19:45:00,
2013-03-14 16:00:00,35.7,19.0,29.72,WSW,248,4.0,-999.0,51,-99.99,,,0.00,weatherlink.com 1.10,2013-03-14 20:00:00,
2013-03-14 16:15:00,34.7,17.0,29.72,SSW,200,3.0,-999.0,49,-99.99,,,0.00,weatherlink.com 1.10,2013-03-14 20:15:00,
2013-03-14 16:30:00,34.4,17.0,29.72,WNW,293,6.0,-999.0,49,-99.99,,,0.00,weatherlink.com 1.10,2013-03-14 20:30:00,
2013-03-14 16:45:00,34.1,16.0,29.73,WNW,284,1.0,-999.0,48,-99.99,,,0.00,weatherlink.com 1.10,2013-03-14 20:45:00,
2013-03-14 17:00:00,33.7,16.0,29.73,SW,231,4.0,-999.0,49,-99.99,,,0.00,weatherlink.com 1.10,2013-03-14 21:00:00,
2013-03-14 17:15:00,33.4,16.0,29.73,SW,227,4.0,-999.0,49,-99.99,,,0.00,weatherlink.com 1.10,2013-03-14 21:15:00,
2013-03-14 17:30:00,33.5,16.0,29.74,WSW,243,3.0,-999.0,48,-99.99,,,0.00,weatherlink.com 1.10,2013-03-14 21:30:00,
2013-03-14 17:45:00,33.1,15.0,29.75,WSW,251,3.0,-999.0,48,-99.99,,,0.00,weatherlink.com 1.10,2013-03-14 21:45:00,
2013-03-14 18:00:00,33.1,15.0,29.75,WSW,248,4.0,-999.0,48,-99.99,,,0.00,weatherlink.com 1.10,2013-03-14 22:00:00,
2013-03-14 18:15:00,31.7,14.0,29.76,WNW,282,4.0,-999.0,49,-99.99,,,0.00,weatherlink.com 1.10,2013-03-14 22:15:00,
2013-03-14 18:30:00,30.8,14.0,29.76,SW,227,3.0,-999.0,50,-99.99,,,0.00,weatherlink.com 1.10,2013-03-14 22:30:00,
2013-03-14 18:45:00,30.1,14.0,29.77,West,259,1.0,-999.0,51,-99.99,,,0.00,weatherlink.com 1.10,2013-03-14 22:45:00,
2013-03-14 19:00:00,29.6,13.0,29.78,WSW,239,2.0,-999.0,51,-99.99,,,0.00,weatherlink.com 1.10,2013-03-14 23:00:00,
2013-03-14 19:15:00,29.2,13.0,29.78,SSW,210,4.0,-999.0,52,-99.99,,,0.00,weatherlink.com 1.10,2013-03-14 23:15:00,
2013-03-14 19:30:00,28.8,13.0,29.79,WSW,251,4.0,-999.0,51,-99.99,,,0.00,weatherlink.com 1.10,2013-03-14 23:30:00,
2013-03-14 19:45:00,28.5,13.0,29.79,WNW,285,3.0,-999.0,53,-99.99,,,0.00,weatherlink.com 1.10,2013-03-14 23:45:00,
2013-03-14 20:00:00,28.4,13.0,29.80,West,260,3.0,-999.0,52,-99.99,,,0.00,weatherlink.com 1.10,2013-03-15 00:00:00,
2013-03-14 20:15:00,28.3,13.0,29.80,West,267,2.0,-999.0,53,-99.99,,,0.00,weatherlink.com 1.10,2013-03-15 00:15:00,
2013-03-14 20:30:00,28.3,13.0,29.81,WSW,257,2.0,-999.0,52,-99.99,,,0.00,weatherlink.com 1.10,2013-03-15 00:30:00,
2013-03-14 20:45:00,28.4,12.0,29.81,NW,306,3.0,-999.0,51,-99.99,,,0.00,weatherlink.com 1.10,2013-03-15 00:45:00,
2013-03-14 21:00:00,28.3,12.0,29.81,West,280,0.0,-999.0,51,-99.99,,,0.00,weatherlink.com 1.10,2013-03-15 01:00:00,
2013-03-14 21:15:00,28.2,12.0,29.81,West,269,2.0,-999.0,52,-99.99,,,0.00,weatherlink.com 1.10,2013-03-15 01:15:00,
2013-03-14 21:30:00,28.0,11.0,29.81,WSW,241,5.0,-999.0,49,-99.99,,,0.00,weatherlink.com 1.10,2013-03-15 01:30:00,
2013-03-14 21:45:00,27.5,10.0,29.82,SW,214,6.0,-999.0,49,-99.99,,,0.00,weatherlink.com 1.10,2013-03-15 01:45:00,
2013-03-14 22:00:00,27.2,10.0,29.82,SW,230,4.0,-999.0,48,-99.99,,,0.00,weatherlink.com 1.10,2013-03-15 02:00:00,
2013-03-14 22:15:00,26.9,10.0,29.83,West,262,5.0,-999.0,49,-99.99,,,0.00,weatherlink.com 1.10,2013-03-15 02:15:00,
2013-03-14 22:30:00,26.6,10.0,29.83,WNW,291,5.0,-999.0,49,-99.99,,,0.00,weatherlink.com 1.10,2013-03-15 02:30:00,
2013-03-14 22:45:00,26.5,9.0,29.83,NW,316,12.0,-999.0,47,-99.99,,,0.00,weatherlink.com 1.10,2013-03-15 02:45:00,
2013-03-14 23:00:00,26.2,9.0,29.83,NW,307,3.0,-999.0,48,-99.99,,,0.00,weatherlink.com 1.10,2013-03-15 03:00:00,
2013-03-14 23:15:00,25.9,9.0,29.84,WSW,257,3.0,-999.0,49,-99.99,,,0.00,weatherlink.com 1.10,2013-03-15 03:15:00,
2013-03-14 23:30:00,25.6,9.0,29.84,NW,313,3.0,-999.0,50,-99.99,,,0.00,weatherlink.com 1.10,2013-03-15 03:30:00,
2013-03-14 23:45:00,25.4,9.0,29.84,WNW,283,0.0,-999.0,51,-99.99,,,0.00,weatherlink.com 1.10,2013-03-15 03:45:00,